sensor_id;sensor_type;location;lat;lon;timestamp;P1;durP1;ratioP1;P2;durP2;ratioP2
8544;SDS011;4310;51.054;6.994;2022-07-03T00:00:28;2.15;;;1.55;;
8544;SDS011;4310;51.054;6.994;2022-07-03T00:01:31;3.05;;;1.70;;
8544;SDS011;4310;51.054;6.994;2022-07-03T00:02:35;1.40;;;1.30;;
8544;SDS011;4310;51.054;6.994;2022-07-03T00:04:50;3.58;;;1.87;;
8544;SDS011;4310;51.054;6.994;2022-07-03T00:05:54;1.50;;;1.40;;
8544;SDS011;4310;51.054;6.994;2022-07-03T00:06:58;2.33;;;1.80;;
8544;SDS011;4310;51.054;6.994;2022-07-03T00:08:03;3.85;;;2.00;;
8544;SDS011;4310;51.054;6.994;2022-07-03T00:09:07;2.02;;;1.60;;
8544;SDS011;4310;51.054;6.994;2022-07-03T00:10:11;3.50;;;1.70;;
8544;SDS011;4310;51.054;6.994;2022-07-03T00:11:14;3.15;;;1.80;;
8544;SDS011;4310;51.054;6.994;2022-07-03T00:12:18;2.62;;;1.62;;
8544;SDS011;4310;51.054;6.994;2022-07-03T00:13:22;2.35;;;1.60;;
8544;SDS011;4310;51.054;6.994;2022-07-03T00:14:26;3.62;;;1.72;;
8544;SDS011;4310;51.054;6.994;2022-07-03T00:15:30;1.52;;;1.40;;
8544;SDS011;4310;51.054;6.994;2022-07-03T00:17:45;2.30;;;1.40;;
8544;SDS011;4310;51.054;6.994;2022-07-03T00:18:49;2.80;;;1.60;;
8544;SDS011;4310;51.054;6.994;2022-07-03T00:21:05;1.82;;;1.67;;
8544;SDS011;4310;51.054;6.994;2022-07-03T00:22:11;2.90;;;1.75;;
8544;SDS011;4310;51.054;6.994;2022-07-03T00:23:17;2.85;;;1.85;;
8544;SDS011;4310;51.054;6.994;2022-07-03T00:24:22;2.87;;;1.80;;
8544;SDS011;4310;51.054;6.994;2022-07-03T00:25:26;2.90;;;1.90;;
8544;SDS011;4310;51.054;6.994;2022-07-03T00:26:32;2.58;;;1.80;;
8544;SDS011;4310;51.054;6.994;2022-07-03T00:27:35;3.72;;;2.00;;
8544;SDS011;4310;51.054;6.994;2022-07-03T00:28:41;2.02;;;1.70;;
8544;SDS011;4310;51.054;6.994;2022-07-03T00:30:57;2.30;;;1.90;;
8544;SDS011;4310;51.054;6.994;2022-07-03T00:32:01;3.12;;;1.95;;
8544;SDS011;4310;51.054;6.994;2022-07-03T00:33:05;2.40;;;1.92;;
8544;SDS011;4310;51.054;6.994;2022-07-03T00:34:09;2.40;;;1.90;;
8544;SDS011;4310;51.054;6.994;2022-07-03T00:36:29;2.50;;;1.90;;
8544;SDS011;4310;51.054;6.994;2022-07-03T00:37:33;2.30;;;1.93;;
8544;SDS011;4310;51.054;6.994;2022-07-03T00:38:36;2.92;;;1.80;;
8544;SDS011;4310;51.054;6.994;2022-07-03T00:39:41;2.10;;;1.90;;
8544;SDS011;4310;51.054;6.994;2022-07-03T00:40:45;3.40;;;2.05;;
8544;SDS011;4310;51.054;6.994;2022-07-03T00:41:49;3.87;;;2.10;;
8544;SDS011;4310;51.054;6.994;2022-07-03T00:44:05;3.33;;;2.12;;
8544;SDS011;4310;51.054;6.994;2022-07-03T00:45:10;2.08;;;1.70;;
8544;SDS011;4310;51.054;6.994;2022-07-03T00:46:15;2.12;;;2.00;;
8544;SDS011;4310;51.054;6.994;2022-07-03T00:47:21;2.17;;;1.80;;
8544;SDS011;4310;51.054;6.994;2022-07-03T00:48:25;3.65;;;2.00;;
8544;SDS011;4310;51.054;6.994;2022-07-03T00:50:44;3.98;;;2.47;;
8544;SDS011;4310;51.054;6.994;2022-07-03T00:51:47;3.62;;;2.12;;
8544;SDS011;4310;51.054;6.994;2022-07-03T00:52:52;3.30;;;2.17;;
8544;SDS011;4310;51.054;6.994;2022-07-03T00:53:57;2.62;;;2.00;;
8544;SDS011;4310;51.054;6.994;2022-07-03T00:55:02;2.72;;;2.20;;
8544;SDS011;4310;51.054;6.994;2022-07-03T00:56:07;2.30;;;2.08;;
8544;SDS011;4310;51.054;6.994;2022-07-03T00:57:13;2.75;;;2.08;;
8544;SDS011;4310;51.054;6.994;2022-07-03T00:58:17;2.35;;;2.05;;
8544;SDS011;4310;51.054;6.994;2022-07-03T00:59:21;2.20;;;2.00;;
8544;SDS011;4310;51.054;6.994;2022-07-03T01:00:25;2.83;;;1.90;;
8544;SDS011;4310;51.054;6.994;2022-07-03T01:01:29;2.30;;;2.10;;
8544;SDS011;4310;51.054;6.994;2022-07-03T01:02:34;2.33;;;2.05;;
8544;SDS011;4310;51.054;6.994;2022-07-03T01:03:39;3.42;;;2.02;;
8544;SDS011;4310;51.054;6.994;2022-07-03T01:04:45;4.05;;;1.75;;
8544;SDS011;4310;51.054;6.994;2022-07-03T01:05:50;3.42;;;1.87;;
8544;SDS011;4310;51.054;6.994;2022-07-03T01:06:56;3.35;;;2.00;;
8544;SDS011;4310;51.054;6.994;2022-07-03T01:08:03;2.87;;;1.87;;
8544;SDS011;4310;51.054;6.994;2022-07-03T01:09:07;2.67;;;2.00;;
8544;SDS011;4310;51.054;6.994;2022-07-03T01:10:12;2.62;;;2.00;;
8544;SDS011;4310;51.054;6.994;2022-07-03T01:11:18;2.47;;;2.27;;
8544;SDS011;4310;51.054;6.994;2022-07-03T01:12:27;3.00;;;2.30;;
8544;SDS011;4310;51.054;6.994;2022-07-03T01:13:31;2.15;;;1.92;;
8544;SDS011;4310;51.054;6.994;2022-07-03T01:14:38;2.50;;;1.80;;
8544;SDS011;4310;51.054;6.994;2022-07-03T01:15:46;3.77;;;1.85;;
8544;SDS011;4310;51.054;6.994;2022-07-03T01:16:51;2.55;;;2.00;;
8544;SDS011;4310;51.054;6.994;2022-07-03T01:19:10;3.60;;;2.12;;
8544;SDS011;4310;51.054;6.994;2022-07-03T01:20:15;2.27;;;2.08;;
8544;SDS011;4310;51.054;6.994;2022-07-03T01:21:23;4.65;;;2.20;;
8544;SDS011;4310;51.054;6.994;2022-07-03T01:22:29;3.02;;;2.22;;
8544;SDS011;4310;51.054;6.994;2022-07-03T01:23:37;4.70;;;2.17;;
8544;SDS011;4310;51.054;6.994;2022-07-03T01:24:47;3.73;;;2.40;;
8544;SDS011;4310;51.054;6.994;2022-07-03T01:25:49;3.22;;;2.05;;
8544;SDS011;4310;51.054;6.994;2022-07-03T01:26:54;3.95;;;2.10;;
8544;SDS011;4310;51.054;6.994;2022-07-03T01:28:05;3.40;;;2.42;;
8544;SDS011;4310;51.054;6.994;2022-07-03T01:29:12;2.87;;;2.50;;
8544;SDS011;4310;51.054;6.994;2022-07-03T01:30:14;3.25;;;2.47;;
8544;SDS011;4310;51.054;6.994;2022-07-03T01:31:19;3.98;;;3.08;;
8544;SDS011;4310;51.054;6.994;2022-07-03T01:32:23;3.13;;;2.50;;
8544;SDS011;4310;51.054;6.994;2022-07-03T01:33:30;4.80;;;2.80;;
8544;SDS011;4310;51.054;6.994;2022-07-03T01:35:47;3.10;;;2.80;;
8544;SDS011;4310;51.054;6.994;2022-07-03T01:36:53;3.63;;;2.90;;
8544;SDS011;4310;51.054;6.994;2022-07-03T01:37:57;3.80;;;3.17;;
8544;SDS011;4310;51.054;6.994;2022-07-03T01:39:02;3.58;;;3.27;;
8544;SDS011;4310;51.054;6.994;2022-07-03T01:40:09;4.37;;;4.08;;
8544;SDS011;4310;51.054;6.994;2022-07-03T01:41:12;6.75;;;3.75;;
8544;SDS011;4310;51.054;6.994;2022-07-03T01:42:16;4.05;;;3.65;;
8544;SDS011;4310;51.054;6.994;2022-07-03T01:43:22;4.80;;;4.40;;
8544;SDS011;4310;51.054;6.994;2022-07-03T01:44:28;5.05;;;4.65;;
8544;SDS011;4310;51.054;6.994;2022-07-03T01:45:33;5.12;;;4.83;;
8544;SDS011;4310;51.054;6.994;2022-07-03T01:46:37;5.20;;;4.90;;
8544;SDS011;4310;51.054;6.994;2022-07-03T01:47:41;5.10;;;4.60;;
8544;SDS011;4310;51.054;6.994;2022-07-03T01:48:46;4.83;;;4.37;;
8544;SDS011;4310;51.054;6.994;2022-07-03T01:51:02;5.50;;;5.20;;
8544;SDS011;4310;51.054;6.994;2022-07-03T01:52:06;6.17;;;5.62;;
8544;SDS011;4310;51.054;6.994;2022-07-03T01:53:11;7.70;;;7.10;;
8544;SDS011;4310;51.054;6.994;2022-07-03T01:54:16;7.83;;;7.20;;
8544;SDS011;4310;51.054;6.994;2022-07-03T01:55:20;6.80;;;6.30;;
8544;SDS011;4310;51.054;6.994;2022-07-03T01:56:24;7.50;;;6.90;;
8544;SDS011;4310;51.054;6.994;2022-07-03T01:57:32;6.45;;;6.00;;
8544;SDS011;4310;51.054;6.994;2022-07-03T01:59:47;6.65;;;6.22;;
8544;SDS011;4310;51.054;6.994;2022-07-03T02:00:55;5.67;;;5.30;;
8544;SDS011;4310;51.054;6.994;2022-07-03T02:01:58;6.87;;;6.22;;
8544;SDS011;4310;51.054;6.994;2022-07-03T02:03:03;5.03;;;4.62;;
8544;SDS011;4310;51.054;6.994;2022-07-03T02:04:14;6.05;;;5.65;;
8544;SDS011;4310;51.054;6.994;2022-07-03T02:05:15;6.78;;;6.37;;
8544;SDS011;4310;51.054;6.994;2022-07-03T02:06:21;8.30;;;7.57;;
8544;SDS011;4310;51.054;6.994;2022-07-03T02:07:26;8.83;;;8.15;;
8544;SDS011;4310;51.054;6.994;2022-07-03T02:09:49;6.30;;;5.80;;
8544;SDS011;4310;51.054;6.994;2022-07-03T02:10:57;5.15;;;4.75;;
8544;SDS011;4310;51.054;6.994;2022-07-03T02:12:00;5.00;;;4.53;;
8544;SDS011;4310;51.054;6.994;2022-07-03T02:13:06;4.40;;;4.10;;
8544;SDS011;4310;51.054;6.994;2022-07-03T02:14:14;4.65;;;4.35;;
8544;SDS011;4310;51.054;6.994;2022-07-03T02:15:18;4.55;;;4.28;;
8544;SDS011;4310;51.054;6.994;2022-07-03T02:16:23;4.30;;;4.00;;
8544;SDS011;4310;51.054;6.994;2022-07-03T02:17:29;4.17;;;3.80;;
8544;SDS011;4310;51.054;6.994;2022-07-03T02:18:36;4.25;;;3.87;;
8544;SDS011;4310;51.054;6.994;2022-07-03T02:19:41;4.00;;;3.70;;
8544;SDS011;4310;51.054;6.994;2022-07-03T02:20:50;4.03;;;3.72;;
8544;SDS011;4310;51.054;6.994;2022-07-03T02:21:51;3.90;;;3.60;;
8544;SDS011;4310;51.054;6.994;2022-07-03T02:24:15;4.00;;;3.70;;
8544;SDS011;4310;51.054;6.994;2022-07-03T02:25:19;4.60;;;4.30;;
8544;SDS011;4310;51.054;6.994;2022-07-03T02:26:27;5.28;;;3.90;;
8544;SDS011;4310;51.054;6.994;2022-07-03T02:27:31;4.17;;;3.90;;
8544;SDS011;4310;51.054;6.994;2022-07-03T02:28:39;4.20;;;3.90;;
8544;SDS011;4310;51.054;6.994;2022-07-03T02:29:43;4.70;;;4.40;;
8544;SDS011;4310;51.054;6.994;2022-07-03T02:31:59;4.20;;;3.90;;
8544;SDS011;4310;51.054;6.994;2022-07-03T02:33:03;4.58;;;4.17;;
8544;SDS011;4310;51.054;6.994;2022-07-03T02:34:08;4.45;;;4.15;;
8544;SDS011;4310;51.054;6.994;2022-07-03T02:35:14;5.05;;;4.65;;
8544;SDS011;4310;51.054;6.994;2022-07-03T02:36:18;5.50;;;5.00;;
8544;SDS011;4310;51.054;6.994;2022-07-03T02:37:23;5.37;;;5.08;;
8544;SDS011;4310;51.054;6.994;2022-07-03T02:39:43;5.50;;;5.20;;
8544;SDS011;4310;51.054;6.994;2022-07-03T02:40:51;5.78;;;5.37;;
8544;SDS011;4310;51.054;6.994;2022-07-03T02:41:53;5.95;;;5.58;;
8544;SDS011;4310;51.054;6.994;2022-07-03T02:44:16;6.08;;;5.70;;
8544;SDS011;4310;51.054;6.994;2022-07-03T02:45:20;5.30;;;4.85;;
8544;SDS011;4310;51.054;6.994;2022-07-03T02:46:29;6.08;;;5.62;;
8544;SDS011;4310;51.054;6.994;2022-07-03T02:47:59;5.67;;;5.28;;
8544;SDS011;4310;51.054;6.994;2022-07-03T02:49:11;5.70;;;5.20;;
8544;SDS011;4310;51.054;6.994;2022-07-03T02:50:10;5.53;;;5.22;;
8544;SDS011;4310;51.054;6.994;2022-07-03T02:51:17;5.75;;;5.35;;
8544;SDS011;4310;51.054;6.994;2022-07-03T02:53:35;6.50;;;6.10;;
8544;SDS011;4310;51.054;6.994;2022-07-03T02:54:42;6.75;;;6.30;;
8544;SDS011;4310;51.054;6.994;2022-07-03T02:55:45;7.05;;;6.50;;
8544;SDS011;4310;51.054;6.994;2022-07-03T02:56:52;6.87;;;6.37;;
8544;SDS011;4310;51.054;6.994;2022-07-03T02:57:57;7.00;;;6.60;;
8544;SDS011;4310;51.054;6.994;2022-07-03T02:59:04;7.20;;;6.80;;
8544;SDS011;4310;51.054;6.994;2022-07-03T03:01:23;7.58;;;7.17;;
8544;SDS011;4310;51.054;6.994;2022-07-03T03:05:15;7.25;;;6.85;;
8544;SDS011;4310;51.054;6.994;2022-07-03T03:06:20;6.97;;;6.67;;
8544;SDS011;4310;51.054;6.994;2022-07-03T03:07:26;7.12;;;6.65;;
8544;SDS011;4310;51.054;6.994;2022-07-03T03:08:31;6.47;;;6.00;;
8544;SDS011;4310;51.054;6.994;2022-07-03T03:10:49;7.00;;;6.50;;
8544;SDS011;4310;51.054;6.994;2022-07-03T03:11:53;6.80;;;6.50;;
8544;SDS011;4310;51.054;6.994;2022-07-03T03:13:01;8.08;;;7.47;;
8544;SDS011;4310;51.054;6.994;2022-07-03T03:14:04;8.60;;;8.10;;
8544;SDS011;4310;51.054;6.994;2022-07-03T03:16:21;7.33;;;7.03;;
8544;SDS011;4310;51.054;6.994;2022-07-03T03:17:24;7.97;;;7.42;;
8544;SDS011;4310;51.054;6.994;2022-07-03T03:18:29;8.53;;;8.03;;
8544;SDS011;4310;51.054;6.994;2022-07-03T03:19:36;8.75;;;8.28;;
8544;SDS011;4310;51.054;6.994;2022-07-03T03:20:39;9.58;;;9.08;;
8544;SDS011;4310;51.054;6.994;2022-07-03T03:21:49;9.50;;;8.90;;
8544;SDS011;4310;51.054;6.994;2022-07-03T03:22:56;9.40;;;8.90;;
8544;SDS011;4310;51.054;6.994;2022-07-03T03:23:59;9.68;;;9.08;;
8544;SDS011;4310;51.054;6.994;2022-07-03T03:25:04;10.08;;;9.48;;
8544;SDS011;4310;51.054;6.994;2022-07-03T03:27:19;9.80;;;9.20;;
8544;SDS011;4310;51.054;6.994;2022-07-03T03:28:23;9.28;;;8.85;;
8544;SDS011;4310;51.054;6.994;2022-07-03T03:29:27;9.68;;;9.18;;
8544;SDS011;4310;51.054;6.994;2022-07-03T03:30:31;9.28;;;8.78;;
8544;SDS011;4310;51.054;6.994;2022-07-03T03:31:34;9.85;;;9.25;;
8544;SDS011;4310;51.054;6.994;2022-07-03T03:32:38;8.75;;;8.35;;
8544;SDS011;4310;51.054;6.994;2022-07-03T03:33:43;9.30;;;8.70;;
8544;SDS011;4310;51.054;6.994;2022-07-03T03:34:47;9.33;;;8.75;;
8544;SDS011;4310;51.054;6.994;2022-07-03T03:35:51;8.85;;;8.35;;
8544;SDS011;4310;51.054;6.994;2022-07-03T03:36:54;8.73;;;8.33;;
8544;SDS011;4310;51.054;6.994;2022-07-03T03:37:58;7.87;;;7.37;;
8544;SDS011;4310;51.054;6.994;2022-07-03T03:39:02;8.30;;;7.90;;
8544;SDS011;4310;51.054;6.994;2022-07-03T03:40:07;7.58;;;7.17;;
8544;SDS011;4310;51.054;6.994;2022-07-03T03:42:22;8.63;;;8.13;;
8544;SDS011;4310;51.054;6.994;2022-07-03T03:43:26;8.33;;;7.92;;
8544;SDS011;4310;51.054;6.994;2022-07-03T03:44:30;8.03;;;7.57;;
8544;SDS011;4310;51.054;6.994;2022-07-03T03:45:34;7.67;;;7.28;;
8544;SDS011;4310;51.054;6.994;2022-07-03T03:46:37;8.40;;;7.95;;
8544;SDS011;4310;51.054;6.994;2022-07-03T03:49:04;8.18;;;7.78;;
8544;SDS011;4310;51.054;6.994;2022-07-03T03:50:08;8.38;;;7.78;;
8544;SDS011;4310;51.054;6.994;2022-07-03T03:51:12;8.58;;;7.97;;
8544;SDS011;4310;51.054;6.994;2022-07-03T03:52:16;9.30;;;8.53;;
8544;SDS011;4310;51.054;6.994;2022-07-03T03:53:20;8.20;;;7.80;;
8544;SDS011;4310;51.054;6.994;2022-07-03T03:54:24;9.28;;;8.78;;
8544;SDS011;4310;51.054;6.994;2022-07-03T03:55:28;9.50;;;8.98;;
8544;SDS011;4310;51.054;6.994;2022-07-03T03:56:32;9.20;;;8.70;;
8544;SDS011;4310;51.054;6.994;2022-07-03T03:57:36;9.10;;;8.50;;
8544;SDS011;4310;51.054;6.994;2022-07-03T03:58:40;9.33;;;8.75;;
8544;SDS011;4310;51.054;6.994;2022-07-03T03:59:44;8.63;;;8.13;;
8544;SDS011;4310;51.054;6.994;2022-07-03T04:00:48;8.93;;;8.30;;
8544;SDS011;4310;51.054;6.994;2022-07-03T04:01:52;9.20;;;8.50;;
8544;SDS011;4310;51.054;6.994;2022-07-03T04:02:56;8.10;;;7.50;;
8544;SDS011;4310;51.054;6.994;2022-07-03T04:03:59;8.98;;;8.28;;
8544;SDS011;4310;51.054;6.994;2022-07-03T04:05:04;8.85;;;8.45;;
8544;SDS011;4310;51.054;6.994;2022-07-03T04:06:08;8.53;;;8.03;;
8544;SDS011;4310;51.054;6.994;2022-07-03T04:08:24;6.95;;;6.65;;
8544;SDS011;4310;51.054;6.994;2022-07-03T04:09:28;6.65;;;6.15;;
8544;SDS011;4310;51.054;6.994;2022-07-03T04:10:32;6.50;;;6.08;;
8544;SDS011;4310;51.054;6.994;2022-07-03T04:11:36;6.75;;;6.25;;
8544;SDS011;4310;51.054;6.994;2022-07-03T04:12:40;5.90;;;5.42;;
8544;SDS011;4310;51.054;6.994;2022-07-03T04:13:43;6.28;;;5.78;;
8544;SDS011;4310;51.054;6.994;2022-07-03T04:14:48;5.95;;;5.55;;
8544;SDS011;4310;51.054;6.994;2022-07-03T04:15:52;5.70;;;5.20;;
8544;SDS011;4310;51.054;6.994;2022-07-03T04:16:56;5.60;;;5.30;;
8544;SDS011;4310;51.054;6.994;2022-07-03T04:18:00;4.87;;;4.58;;
8544;SDS011;4310;51.054;6.994;2022-07-03T04:19:04;5.03;;;4.72;;
8544;SDS011;4310;51.054;6.994;2022-07-03T04:20:09;5.17;;;4.75;;
8544;SDS011;4310;51.054;6.994;2022-07-03T04:21:13;4.80;;;4.50;;
8544;SDS011;4310;51.054;6.994;2022-07-03T04:22:17;5.30;;;4.90;;
8544;SDS011;4310;51.054;6.994;2022-07-03T04:23:20;5.00;;;4.70;;
8544;SDS011;4310;51.054;6.994;2022-07-03T04:24:24;5.17;;;4.80;;
8544;SDS011;4310;51.054;6.994;2022-07-03T04:25:28;5.35;;;4.83;;
8544;SDS011;4310;51.054;6.994;2022-07-03T04:26:32;4.60;;;4.20;;
8544;SDS011;4310;51.054;6.994;2022-07-03T04:27:36;5.00;;;3.95;;
8544;SDS011;4310;51.054;6.994;2022-07-03T04:29:51;4.12;;;3.83;;
8544;SDS011;4310;51.054;6.994;2022-07-03T04:30:55;4.50;;;4.10;;
8544;SDS011;4310;51.054;6.994;2022-07-03T04:31:59;5.17;;;3.65;;
8544;SDS011;4310;51.054;6.994;2022-07-03T04:33:03;4.00;;;3.70;;
8544;SDS011;4310;51.054;6.994;2022-07-03T04:34:07;3.85;;;3.58;;
8544;SDS011;4310;51.054;6.994;2022-07-03T04:35:11;4.10;;;3.83;;
8544;SDS011;4310;51.054;6.994;2022-07-03T04:36:14;5.33;;;3.90;;
8544;SDS011;4310;51.054;6.994;2022-07-03T04:37:18;3.85;;;3.55;;
8544;SDS011;4310;51.054;6.994;2022-07-03T04:38:22;4.20;;;3.80;;
8544;SDS011;4310;51.054;6.994;2022-07-03T04:39:26;3.50;;;3.20;;
8544;SDS011;4310;51.054;6.994;2022-07-03T04:41:41;3.42;;;3.12;;
8544;SDS011;4310;51.054;6.994;2022-07-03T04:42:45;5.35;;;3.40;;
8544;SDS011;4310;51.054;6.994;2022-07-03T04:43:48;3.72;;;3.02;;
8544;SDS011;4310;51.054;6.994;2022-07-03T04:44:52;3.27;;;3.08;;
8544;SDS011;4310;51.054;6.994;2022-07-03T04:45:56;3.27;;;2.98;;
8544;SDS011;4310;51.054;6.994;2022-07-03T04:47:00;3.10;;;2.90;;
8544;SDS011;4310;51.054;6.994;2022-07-03T04:48:04;3.50;;;2.77;;
8544;SDS011;4310;51.054;6.994;2022-07-03T04:49:08;3.05;;;2.83;;
8544;SDS011;4310;51.054;6.994;2022-07-03T04:50:13;3.12;;;2.83;;
8544;SDS011;4310;51.054;6.994;2022-07-03T04:51:16;3.35;;;3.05;;
8544;SDS011;4310;51.054;6.994;2022-07-03T04:52:20;4.92;;;3.10;;
8544;SDS011;4310;51.054;6.994;2022-07-03T04:53:24;3.20;;;2.90;;
8544;SDS011;4310;51.054;6.994;2022-07-03T04:54:28;3.20;;;2.95;;
8544;SDS011;4310;51.054;6.994;2022-07-03T04:55:32;3.40;;;2.87;;
8544;SDS011;4310;51.054;6.994;2022-07-03T04:57:47;3.08;;;2.80;;
8544;SDS011;4310;51.054;6.994;2022-07-03T04:58:51;3.77;;;2.90;;
8544;SDS011;4310;51.054;6.994;2022-07-03T04:59:54;3.87;;;3.00;;
8544;SDS011;4310;51.054;6.994;2022-07-03T05:00:58;3.37;;;2.70;;
8544;SDS011;4310;51.054;6.994;2022-07-03T05:02:02;3.00;;;2.70;;
8544;SDS011;4310;51.054;6.994;2022-07-03T05:03:06;3.80;;;2.75;;
8544;SDS011;4310;51.054;6.994;2022-07-03T05:04:09;3.20;;;2.70;;
8544;SDS011;4310;51.054;6.994;2022-07-03T05:06:25;3.58;;;2.95;;
8544;SDS011;4310;51.054;6.994;2022-07-03T05:07:28;3.25;;;2.72;;
8544;SDS011;4310;51.054;6.994;2022-07-03T05:08:32;3.92;;;2.98;;
8544;SDS011;4310;51.054;6.994;2022-07-03T05:09:36;3.20;;;2.98;;
8544;SDS011;4310;51.054;6.994;2022-07-03T05:10:40;3.40;;;3.10;;
8544;SDS011;4310;51.054;6.994;2022-07-03T05:11:43;3.58;;;3.37;;
8544;SDS011;4310;51.054;6.994;2022-07-03T05:12:47;3.22;;;2.92;;
8544;SDS011;4310;51.054;6.994;2022-07-03T05:13:51;2.80;;;2.60;;
8544;SDS011;4310;51.054;6.994;2022-07-03T05:14:55;2.55;;;2.35;;
8544;SDS011;4310;51.054;6.994;2022-07-03T05:15:58;2.52;;;2.33;;
8544;SDS011;4310;51.054;6.994;2022-07-03T05:17:02;2.85;;;2.33;;
8544;SDS011;4310;51.054;6.994;2022-07-03T05:19:17;5.25;;;2.40;;
8544;SDS011;4310;51.054;6.994;2022-07-03T05:20:21;2.73;;;2.50;;
8544;SDS011;4310;51.054;6.994;2022-07-03T05:21:30;2.80;;;2.30;;
8544;SDS011;4310;51.054;6.994;2022-07-03T05:22:34;4.12;;;2.50;;
8544;SDS011;4310;51.054;6.994;2022-07-03T05:23:38;2.40;;;2.20;;
8544;SDS011;4310;51.054;6.994;2022-07-03T05:24:42;3.77;;;2.50;;
8544;SDS011;4310;51.054;6.994;2022-07-03T05:25:46;3.33;;;2.33;;
8544;SDS011;4310;51.054;6.994;2022-07-03T05:26:50;7.30;;;2.40;;
8544;SDS011;4310;51.054;6.994;2022-07-03T05:27:53;2.77;;;2.42;;
8544;SDS011;4310;51.054;6.994;2022-07-03T05:28:57;3.85;;;2.42;;
8544;SDS011;4310;51.054;6.994;2022-07-03T05:30:01;3.02;;;2.40;;
8544;SDS011;4310;51.054;6.994;2022-07-03T05:31:05;2.80;;;2.55;;
8544;SDS011;4310;51.054;6.994;2022-07-03T05:32:08;3.08;;;2.20;;
8544;SDS011;4310;51.054;6.994;2022-07-03T05:33:12;3.10;;;2.60;;
8544;SDS011;4310;51.054;6.994;2022-07-03T05:34:16;3.33;;;2.70;;
8544;SDS011;4310;51.054;6.994;2022-07-03T05:35:20;5.00;;;2.80;;
8544;SDS011;4310;51.054;6.994;2022-07-03T05:36:23;4.58;;;3.08;;
8544;SDS011;4310;51.054;6.994;2022-07-03T05:37:27;4.28;;;3.20;;
8544;SDS011;4310;51.054;6.994;2022-07-03T05:38:31;5.40;;;3.12;;
8544;SDS011;4310;51.054;6.994;2022-07-03T05:41:05;5.50;;;3.10;;
8544;SDS011;4310;51.054;6.994;2022-07-03T05:42:09;5.50;;;3.40;;
8544;SDS011;4310;51.054;6.994;2022-07-03T05:43:13;4.00;;;3.25;;
8544;SDS011;4310;51.054;6.994;2022-07-03T05:44:16;5.95;;;3.12;;
8544;SDS011;4310;51.054;6.994;2022-07-03T05:45:20;5.87;;;3.12;;
8544;SDS011;4310;51.054;6.994;2022-07-03T05:46:24;3.62;;;2.98;;
8544;SDS011;4310;51.054;6.994;2022-07-03T05:47:28;3.50;;;2.77;;
8544;SDS011;4310;51.054;6.994;2022-07-03T05:48:32;3.87;;;2.90;;
8544;SDS011;4310;51.054;6.994;2022-07-03T05:49:36;4.25;;;3.02;;
8544;SDS011;4310;51.054;6.994;2022-07-03T05:50:39;3.55;;;2.65;;
8544;SDS011;4310;51.054;6.994;2022-07-03T05:51:43;4.80;;;3.07;;
8544;SDS011;4310;51.054;6.994;2022-07-03T05:52:47;5.12;;;3.00;;
8544;SDS011;4310;51.054;6.994;2022-07-03T05:53:50;3.40;;;2.95;;
8544;SDS011;4310;51.054;6.994;2022-07-03T05:54:54;4.75;;;2.83;;
8544;SDS011;4310;51.054;6.994;2022-07-03T05:55:58;4.22;;;2.80;;
8544;SDS011;4310;51.054;6.994;2022-07-03T05:58:13;5.62;;;2.98;;
8544;SDS011;4310;51.054;6.994;2022-07-03T05:59:17;5.97;;;3.10;;
8544;SDS011;4310;51.054;6.994;2022-07-03T06:00:21;6.10;;;3.00;;
8544;SDS011;4310;51.054;6.994;2022-07-03T06:01:25;4.95;;;2.80;;
8544;SDS011;4310;51.054;6.994;2022-07-03T06:02:29;3.27;;;2.47;;
8544;SDS011;4310;51.054;6.994;2022-07-03T06:03:33;4.35;;;2.80;;
8544;SDS011;4310;51.054;6.994;2022-07-03T06:04:37;7.37;;;3.00;;
8544;SDS011;4310;51.054;6.994;2022-07-03T06:05:40;3.08;;;2.60;;
8544;SDS011;4310;51.054;6.994;2022-07-03T06:06:44;5.60;;;2.60;;
8544;SDS011;4310;51.054;6.994;2022-07-03T06:08:59;4.75;;;2.87;;
8544;SDS011;4310;51.054;6.994;2022-07-03T06:10:04;4.55;;;3.08;;
8544;SDS011;4310;51.054;6.994;2022-07-03T06:11:08;5.65;;;2.95;;
8544;SDS011;4310;51.054;6.994;2022-07-03T06:12:12;4.72;;;2.80;;
8544;SDS011;4310;51.054;6.994;2022-07-03T06:13:15;6.37;;;3.00;;
8544;SDS011;4310;51.054;6.994;2022-07-03T06:14:19;5.17;;;2.80;;
8544;SDS011;4310;51.054;6.994;2022-07-03T06:15:23;5.25;;;2.77;;
8544;SDS011;4310;51.054;6.994;2022-07-03T06:16:27;4.83;;;3.00;;
8544;SDS011;4310;51.054;6.994;2022-07-03T06:17:31;3.87;;;2.83;;
8544;SDS011;4310;51.054;6.994;2022-07-03T06:18:34;7.15;;;3.12;;
8544;SDS011;4310;51.054;6.994;2022-07-03T06:19:38;7.72;;;3.30;;
8544;SDS011;4310;51.054;6.994;2022-07-03T06:20:42;5.27;;;2.93;;
8544;SDS011;4310;51.054;6.994;2022-07-03T06:21:45;5.62;;;2.83;;
8544;SDS011;4310;51.054;6.994;2022-07-03T06:22:49;3.33;;;2.80;;
8544;SDS011;4310;51.054;6.994;2022-07-03T06:23:53;4.00;;;3.25;;
8544;SDS011;4310;51.054;6.994;2022-07-03T06:24:57;5.72;;;3.12;;
8544;SDS011;4310;51.054;6.994;2022-07-03T06:26:00;4.65;;;2.95;;
8544;SDS011;4310;51.054;6.994;2022-07-03T06:27:05;5.37;;;3.20;;
8544;SDS011;4310;51.054;6.994;2022-07-03T06:28:08;4.28;;;3.00;;
8544;SDS011;4310;51.054;6.994;2022-07-03T06:30:24;5.83;;;2.92;;
8544;SDS011;4310;51.054;6.994;2022-07-03T06:31:27;3.67;;;2.70;;
8544;SDS011;4310;51.054;6.994;2022-07-03T06:32:31;6.83;;;2.62;;
8544;SDS011;4310;51.054;6.994;2022-07-03T06:33:35;5.35;;;3.12;;
8544;SDS011;4310;51.054;6.994;2022-07-03T06:34:39;4.65;;;3.20;;
8544;SDS011;4310;51.054;6.994;2022-07-03T06:35:44;6.67;;;3.12;;
8544;SDS011;4310;51.054;6.994;2022-07-03T06:36:48;6.60;;;2.95;;
8544;SDS011;4310;51.054;6.994;2022-07-03T06:37:52;4.20;;;3.00;;
8544;SDS011;4310;51.054;6.994;2022-07-03T06:38:55;6.12;;;3.17;;
8544;SDS011;4310;51.054;6.994;2022-07-03T06:39:59;5.45;;;2.98;;
8544;SDS011;4310;51.054;6.994;2022-07-03T06:41:03;4.42;;;3.08;;
8544;SDS011;4310;51.054;6.994;2022-07-03T06:42:07;5.83;;;3.12;;
8544;SDS011;4310;51.054;6.994;2022-07-03T06:43:11;6.60;;;3.17;;
8544;SDS011;4310;51.054;6.994;2022-07-03T06:44:15;5.45;;;2.95;;
8544;SDS011;4310;51.054;6.994;2022-07-03T06:45:45;6.85;;;3.30;;
8544;SDS011;4310;51.054;6.994;2022-07-03T06:46:48;6.67;;;3.70;;
8544;SDS011;4310;51.054;6.994;2022-07-03T06:47:52;4.45;;;3.37;;
8544;SDS011;4310;51.054;6.994;2022-07-03T06:48:56;5.72;;;3.22;;
8544;SDS011;4310;51.054;6.994;2022-07-03T06:50:00;5.25;;;3.10;;
8544;SDS011;4310;51.054;6.994;2022-07-03T06:51:03;7.80;;;3.85;;
8544;SDS011;4310;51.054;6.994;2022-07-03T06:52:07;3.90;;;2.85;;
8544;SDS011;4310;51.054;6.994;2022-07-03T06:53:11;5.65;;;3.00;;
8544;SDS011;4310;51.054;6.994;2022-07-03T06:54:15;4.75;;;3.37;;
8544;SDS011;4310;51.054;6.994;2022-07-03T06:55:19;4.53;;;3.15;;
8544;SDS011;4310;51.054;6.994;2022-07-03T06:56:23;6.05;;;3.08;;
8544;SDS011;4310;51.054;6.994;2022-07-03T06:57:27;5.35;;;3.02;;
8544;SDS011;4310;51.054;6.994;2022-07-03T06:58:30;4.22;;;3.20;;
8544;SDS011;4310;51.054;6.994;2022-07-03T06:59:34;5.60;;;2.90;;
8544;SDS011;4310;51.054;6.994;2022-07-03T07:00:38;4.75;;;3.00;;
8544;SDS011;4310;51.054;6.994;2022-07-03T07:01:41;6.60;;;3.20;;
8544;SDS011;4310;51.054;6.994;2022-07-03T07:02:45;4.95;;;2.62;;
8544;SDS011;4310;51.054;6.994;2022-07-03T07:03:49;3.98;;;3.02;;
8544;SDS011;4310;51.054;6.994;2022-07-03T07:04:53;4.22;;;3.05;;
8544;SDS011;4310;51.054;6.994;2022-07-03T07:05:57;6.67;;;2.95;;
8544;SDS011;4310;51.054;6.994;2022-07-03T07:07:00;4.45;;;2.70;;
8544;SDS011;4310;51.054;6.994;2022-07-03T07:09:16;5.37;;;2.90;;
8544;SDS011;4310;51.054;6.994;2022-07-03T07:10:19;5.50;;;3.20;;
8544;SDS011;4310;51.054;6.994;2022-07-03T07:11:23;5.20;;;3.20;;
8544;SDS011;4310;51.054;6.994;2022-07-03T07:12:27;5.12;;;3.10;;
8544;SDS011;4310;51.054;6.994;2022-07-03T07:13:31;5.58;;;2.90;;
8544;SDS011;4310;51.054;6.994;2022-07-03T07:14:34;4.62;;;2.92;;
8544;SDS011;4310;51.054;6.994;2022-07-03T07:15:38;4.70;;;2.98;;
8544;SDS011;4310;51.054;6.994;2022-07-03T07:16:42;5.28;;;2.98;;
8544;SDS011;4310;51.054;6.994;2022-07-03T07:17:46;6.63;;;2.60;;
8544;SDS011;4310;51.054;6.994;2022-07-03T07:18:49;5.50;;;2.87;;
8544;SDS011;4310;51.054;6.994;2022-07-03T07:19:54;4.70;;;3.22;;
8544;SDS011;4310;51.054;6.994;2022-07-03T07:20:58;5.90;;;2.92;;
8544;SDS011;4310;51.054;6.994;2022-07-03T07:22:03;5.28;;;2.62;;
8544;SDS011;4310;51.054;6.994;2022-07-03T07:23:06;3.62;;;2.70;;
8544;SDS011;4310;51.054;6.994;2022-07-03T07:24:10;4.85;;;3.10;;
8544;SDS011;4310;51.054;6.994;2022-07-03T07:25:14;5.00;;;3.52;;